createdAt,value
2023-01-08T00:01:10.771Z,100885.25
2023-01-08T00:03:38.640Z,100883.66
2023-01-08T00:06:07.525Z,100883.69
2023-01-08T00:08:34.592Z,100878.75
2023-01-08T00:11:01.242Z,100876.28
2023-01-08T00:13:28.300Z,100877.19
2023-01-08T00:15:55.359Z,100874.69
2023-01-08T00:18:22.376Z,100872.25
2023-01-08T00:20:49.032Z,100871.44
2023-01-08T00:23:18.161Z,100879.78
2023-01-08T00:25:44.870Z,100882.25
2023-01-08T00:28:11.777Z,100881.31
2023-01-08T00:30:38.544Z,100888.81
2023-01-08T00:33:05.043Z,100883.69
2023-01-08T00:35:31.628Z,100875.41
2023-01-08T00:37:58.245Z,100866.91
2023-01-08T00:40:24.849Z,100861.91
2023-01-08T00:42:51.483Z,100864.50
2023-01-08T00:45:17.934Z,100865.34
2023-01-08T00:47:44.404Z,100858.72
2023-01-08T00:50:11.192Z,100867.06
2023-01-08T00:52:38.336Z,100862.97
2023-01-08T00:55:05.387Z,100860.50
2023-01-08T00:57:36.076Z,100858.78
2023-01-08T01:00:03.855Z,100860.41
2023-01-08T01:02:30.412Z,100859.59
2023-01-08T01:04:57.057Z,100849.72
2023-01-08T01:07:23.720Z,100858.78
2023-01-08T01:09:50.271Z,100856.25
2023-01-08T01:12:16.993Z,100845.31
2023-01-08T01:14:43.551Z,100852.75
2023-01-08T01:17:12.371Z,100845.06
2023-01-08T01:19:39.399Z,100852.66
2023-01-08T01:22:05.883Z,100854.44
2023-01-08T01:24:32.961Z,100859.38
2023-01-08T01:26:59.716Z,100856.16
2023-01-08T01:29:26.463Z,100847.78
2023-01-08T01:31:53.009Z,100850.25
2023-01-08T01:34:19.544Z,100849.44
2023-01-08T01:36:46.323Z,100855.16
2023-01-08T01:39:12.855Z,100859.38
2023-01-08T01:41:42.028Z,100857.78
2023-01-08T01:44:33.435Z,100856.88
2023-01-08T01:47:02.906Z,100896.72
2023-01-08T01:49:30.223Z,100863.47
2023-01-08T01:52:00.753Z,100850.16
2023-01-08T01:54:27.381Z,100860.25
2023-01-08T01:56:54.542Z,100853.47
2023-01-08T01:59:21.109Z,100864.38
2023-01-08T02:01:48.067Z,100861.88
2023-01-08T02:04:14.765Z,100860.91
2023-01-08T02:06:58.594Z,100862.50
2023-01-08T02:09:32.903Z,100853.28
2023-01-08T02:12:08.114Z,100847.41
2023-01-08T02:14:42.929Z,100844.91
2023-01-08T02:17:17.814Z,100863.16
2023-01-08T02:19:54.860Z,100859.91
2023-01-08T02:22:35.830Z,100860.63
2023-01-08T02:25:20.574Z,100859.00
2023-01-08T02:27:51.187Z,100858.97
2023-01-08T02:30:18.772Z,100858.19
2023-01-08T02:32:45.556Z,100850.69
2023-01-08T02:35:12.878Z,100852.44
2023-01-08T02:37:40.775Z,100849.94
2023-01-08T02:40:14.143Z,100852.44
2023-01-08T02:42:55.238Z,100849.97
2023-01-08T02:45:47.789Z,100855.72
2023-01-08T02:48:38.710Z,100854.94
2023-01-08T02:51:15.655Z,100858.34
2023-01-08T02:53:45.934Z,100855.84
2023-01-08T02:56:17.677Z,100854.97
2023-01-08T02:58:45.385Z,100857.50
2023-01-08T03:01:14.157Z,100856.69
2023-01-08T03:03:46.102Z,100859.22
2023-01-08T03:06:18.680Z,100855.19
2023-01-08T03:08:48.832Z,100864.22
2023-01-08T03:11:19.411Z,100864.97
2023-01-08T03:13:51.138Z,100873.31
2023-01-08T03:16:31.784Z,100862.41
2023-01-08T03:19:07.462Z,100863.34
2023-01-08T03:21:37.816Z,100864.97
2023-01-08T03:24:05.754Z,100869.09
2023-01-08T03:26:34.438Z,100866.69
2023-01-08T03:29:02.970Z,100856.66
2023-01-08T03:31:30.337Z,100864.09
2023-01-08T03:33:58.067Z,100868.22
2023-01-08T03:36:28.354Z,100876.59
2023-01-08T03:39:12.186Z,100872.38
2023-01-08T03:41:38.891Z,100887.25
2023-01-08T03:44:05.679Z,100883.13
2023-01-08T03:46:35.843Z,100890.53
2023-01-08T03:49:05.040Z,100891.44
2023-01-08T03:51:43.549Z,100888.69
2023-01-08T03:54:22.950Z,100879.44
2023-01-08T03:56:49.462Z,100882.72
2023-01-08T03:59:16.447Z,100882.72
2023-01-08T04:01:43.627Z,100877.81
2023-01-08T04:04:11.424Z,100879.56
2023-01-08T04:06:38.077Z,100878.72
2023-01-08T04:09:05.013Z,100881.31
2023-01-08T04:11:32.178Z,100887.16
2023-01-08T04:13:59.127Z,100890.69
2023-01-08T04:16:25.842Z,100884.88
2023-01-08T04:18:52.367Z,100886.56
2023-01-08T04:21:19.077Z,100882.38
2023-01-08T04:23:45.681Z,100880.75
2023-01-08T04:26:12.217Z,100874.13
2023-01-08T04:28:38.763Z,100875.00
2023-01-08T04:31:09.094Z,100878.34
2023-01-08T04:33:36.133Z,100885.81
2023-01-08T04:36:03.794Z,100890.81
2023-01-08T04:38:30.581Z,100887.59
2023-01-08T04:40:58.036Z,100881.81
2023-01-08T04:43:25.290Z,100875.16
2023-01-08T04:45:52.559Z,100870.28
2023-01-08T04:48:19.273Z,100863.66
2023-01-08T04:50:45.855Z,100860.28
2023-01-08T04:53:12.379Z,100866.97
2023-01-08T04:55:39.817Z,100863.41
2023-01-08T04:58:06.510Z,100870.06
2023-01-08T05:00:33.172Z,100866.84
2023-01-08T05:02:59.963Z,100872.75
2023-01-08T05:05:26.568Z,100880.25
2023-01-08T05:07:53.514Z,100876.97
2023-01-08T05:10:20.058Z,100876.91
2023-01-08T05:12:46.600Z,100880.19
2023-01-08T05:15:13.239Z,100885.09
2023-01-08T05:17:39.721Z,100884.31
2023-01-08T05:20:06.697Z,100880.31
2023-01-08T05:22:33.266Z,100881.28
2023-01-08T05:24:59.826Z,100890.66
2023-01-08T05:27:28.642Z,100891.66
2023-01-08T05:29:55.148Z,100883.47
2023-01-08T05:32:21.725Z,100891.06
2023-01-08T05:34:48.188Z,100895.41
2023-01-08T05:37:14.697Z,100899.63
2023-01-08T05:39:41.183Z,100896.38
2023-01-08T05:42:07.869Z,100909.81
2023-01-08T05:44:34.438Z,100901.56
2023-01-08T05:47:01.738Z,100893.44
2023-01-08T05:49:28.219Z,100901.19
2023-01-08T05:51:54.783Z,100900.75
2023-01-08T05:54:21.347Z,100893.75
2023-01-08T05:56:47.868Z,100893.44
2023-01-08T05:59:14.632Z,100902.44
2023-01-08T06:01:41.326Z,100898.56
2023-01-08T06:04:08.269Z,100890.19
2023-01-08T06:06:34.965Z,100883.09
2023-01-08T06:09:01.573Z,100880.84
2023-01-08T06:11:28.111Z,100889.19
2023-01-08T06:13:54.667Z,100888.91
2023-01-08T06:16:21.219Z,100892.16
2023-01-08T06:18:47.755Z,100892.47
2023-01-08T06:21:14.331Z,100885.13
2023-01-08T06:23:41.180Z,100881.66
2023-01-08T06:26:07.667Z,100885.91
2023-01-08T06:28:34.612Z,100884.09
2023-01-08T06:31:02.150Z,100873.88
2023-01-08T06:33:29.713Z,100884.50
2023-01-08T06:36:00.524Z,100870.91
2023-01-08T06:38:27.003Z,100871.38
2023-01-08T06:40:53.621Z,100870.78
2023-01-08T06:43:23.180Z,100862.38
2023-01-08T06:45:57.129Z,100856.16
2023-01-08T06:48:24.477Z,100866.34
2023-01-08T06:50:51.519Z,100863.56
2023-01-08T06:53:18.307Z,100860.25
2023-01-08T06:55:44.884Z,100867.81
2023-01-08T06:58:12.339Z,100859.16
2023-01-08T07:00:39.589Z,100865.13
2023-01-08T07:03:06.895Z,100858.19
2023-01-08T07:05:33.498Z,100858.00
2023-01-08T07:08:00.104Z,100857.00
2023-01-08T07:10:26.898Z,100859.06
2023-01-08T07:12:53.537Z,100865.38
2023-01-08T07:15:20.028Z,100860.50
2023-01-08T07:17:46.555Z,100865.63
2023-01-08T07:20:15.588Z,100859.50
2023-01-08T07:22:42.997Z,100860.00
2023-01-08T07:25:09.854Z,100853.81
2023-01-08T07:27:36.376Z,100854.88
2023-01-08T07:30:03.142Z,100849.38
2023-01-08T07:32:29.874Z,100862.13
2023-01-08T07:34:56.440Z,100852.91
2023-01-08T07:37:22.919Z,100862.28
2023-01-08T07:39:49.588Z,100861.47
2023-01-08T07:42:16.475Z,100865.16
2023-01-08T07:44:43.062Z,100865.72
2023-01-08T07:47:09.667Z,100866.16
2023-01-08T07:49:36.156Z,100869.16
2023-01-08T07:52:02.664Z,100872.81
2023-01-08T07:54:29.261Z,100878.13
2023-01-08T07:56:55.786Z,100885.06
2023-01-08T07:59:22.329Z,100879.72
2023-01-08T08:01:48.995Z,100887.22
2023-01-08T08:04:15.804Z,100882.56
2023-01-08T08:06:42.304Z,100882.22
2023-01-08T08:09:08.848Z,100886.38
2023-01-08T08:11:35.410Z,100889.00
2023-01-08T08:14:01.895Z,100889.00
2023-01-08T08:16:28.559Z,100893.09
2023-01-08T08:18:55.073Z,100894.75
2023-01-08T08:21:21.553Z,100890.66
2023-01-08T08:23:48.036Z,100893.22
2023-01-08T08:26:14.560Z,100891.31
2023-01-08T08:28:41.238Z,100889.22
2023-01-08T08:31:07.847Z,100888.38
2023-01-08T08:33:34.468Z,100888.63
2023-01-08T08:36:01.268Z,100881.22
2023-01-08T08:38:27.825Z,100886.03
2023-01-08T08:40:54.602Z,100879.84
2023-01-08T08:43:21.120Z,100878.00
2023-01-08T08:45:47.711Z,100868.91
2023-01-08T08:48:14.513Z,100865.31
2023-01-08T08:50:41.157Z,100866.56
2023-01-08T08:53:07.820Z,100872.50
2023-01-08T08:55:34.685Z,100871.00
2023-01-08T08:58:13.078Z,100872.69
2023-01-08T09:00:41.237Z,100868.16
2023-01-08T09:03:12.586Z,100868.09
2023-01-08T09:05:39.296Z,100859.81
2023-01-08T09:08:06.063Z,100857.91
2023-01-08T09:10:32.643Z,100849.06
2023-01-08T09:12:59.941Z,100845.97
2023-01-08T09:15:26.493Z,100852.72
2023-01-08T09:17:57.030Z,100857.38
2023-01-08T09:20:25.871Z,100857.50
2023-01-08T09:22:52.808Z,100843.16
2023-01-08T09:25:19.516Z,100842.53
2023-01-08T09:27:46.217Z,100839.41
2023-01-08T09:30:12.990Z,100845.34
2023-01-08T09:32:39.536Z,100846.94
2023-01-08T09:35:06.484Z,100840.50
2023-01-08T09:37:33.061Z,100838.34
2023-01-08T09:40:02.488Z,100838.41
2023-01-08T09:42:31.042Z,100846.66
2023-01-08T09:44:59.277Z,100837.63
2023-01-08T09:47:35.554Z,100840.66
2023-01-08T09:50:06.482Z,100839.44
2023-01-08T09:52:33.034Z,100852.91
2023-01-08T09:55:02.568Z,100855.28
2023-01-08T09:57:29.488Z,100848.41
2023-01-08T09:59:56.125Z,100844.25
2023-01-08T10:02:25.506Z,100852.06
2023-01-08T10:05:00.672Z,100846.91
2023-01-08T10:07:29.061Z,100842.19
2023-01-08T10:09:56.236Z,100845.72
2023-01-08T10:12:31.143Z,100845.94
2023-01-08T10:15:01.773Z,100850.22
2023-01-08T10:17:37.296Z,100854.44
2023-01-08T10:20:25.027Z,100857.94
2023-01-08T10:22:53.212Z,100855.47
2023-01-08T10:25:23.768Z,100848.56
2023-01-08T10:27:58.136Z,100842.53
2023-01-08T10:30:37.885Z,100837.25
2023-01-08T10:33:10.807Z,100843.91
2023-01-08T10:35:40.060Z,100845.34
2023-01-08T10:38:06.673Z,100853.44
2023-01-08T10:40:34.026Z,100849.56
2023-01-08T10:43:18.297Z,100852.56
2023-01-08T10:45:59.749Z,100853.72
2023-01-08T10:48:34.819Z,100848.25
2023-01-08T10:51:13.388Z,100846.25
2023-01-08T10:53:40.008Z,100834.25
2023-01-08T10:56:06.717Z,100842.69
2023-01-08T10:58:43.228Z,100838.25
2023-01-08T11:01:12.672Z,100835.28
2023-01-08T11:03:40.766Z,100842.28
2023-01-08T11:06:12.938Z,100841.66
2023-01-08T11:08:47.910Z,100836.53
2023-01-08T11:11:14.580Z,100845.28
2023-01-08T11:13:41.333Z,100854.53
2023-01-08T11:16:10.168Z,100849.34
2023-01-08T11:18:57.172Z,100855.41
2023-01-08T11:21:31.169Z,100848.69
2023-01-08T11:24:27.030Z,100842.84
2023-01-08T11:27:05.575Z,100839.31
2023-01-08T11:29:52.160Z,100827.56
2023-01-08T11:32:33.620Z,100824.28
2023-01-08T11:35:12.441Z,100821.88
2023-01-08T11:37:41.489Z,100815.78
2023-01-08T11:40:15.006Z,100818.69
2023-01-08T11:43:11.896Z,100822.03
2023-01-08T11:46:15.823Z,100825.53
2023-01-08T11:49:07.167Z,100831.25
2023-01-08T11:52:07.757Z,100824.59
2023-01-08T11:55:05.582Z,100824.63
2023-01-08T11:57:37.838Z,100835.66
2023-01-08T12:00:07.060Z,100835.69
2023-01-08T12:02:50.631Z,100839.94
2023-01-08T12:05:22.900Z,100836.78
2023-01-08T12:08:04.426Z,100835.97
2023-01-08T12:10:53.282Z,100826.72
2023-01-08T12:13:57.195Z,100830.09
2023-01-08T12:16:42.116Z,100822.53
2023-01-08T12:19:37.244Z,100819.44
2023-01-08T12:22:12.634Z,100813.66
2023-01-08T12:25:16.279Z,100824.13
2023-01-08T12:27:56.799Z,100822.56
2023-01-08T12:31:10.439Z,100820.94
2023-01-08T12:33:54.419Z,100826.94
2023-01-08T12:36:26.357Z,100838.84
2023-01-08T12:39:01.571Z,100844.75
2023-01-08T12:41:32.288Z,100845.59
2023-01-08T12:44:04.294Z,100843.06
2023-01-08T12:46:34.182Z,100837.28
2023-01-08T12:49:02.084Z,100845.03
2023-01-08T12:51:35.403Z,100837.38
2023-01-08T12:54:22.252Z,100833.28
2023-01-08T12:57:07.953Z,100853.66
2023-01-08T12:59:59.254Z,100843.66
2023-01-08T13:03:00.509Z,100852.31
2023-01-08T13:05:35.733Z,100863.31
2023-01-08T13:08:03.761Z,100871.91
2023-01-08T13:10:48.150Z,100856.69
2023-01-08T13:13:28.215Z,100848.22
2023-01-08T13:16:17.237Z,100856.63
2023-01-08T13:18:58.711Z,100854.81
2023-01-08T13:21:35.964Z,100860.63
2023-01-08T13:24:23.860Z,100848.84
2023-01-08T13:26:50.507Z,100850.59
2023-01-08T13:29:27.538Z,100854.75
2023-01-08T13:31:54.392Z,100855.47
2023-01-08T13:34:36.318Z,100847.00
2023-01-08T13:37:02.863Z,100859.72
2023-01-08T13:39:38.055Z,100855.47
2023-01-08T13:42:10.871Z,100868.13
2023-01-08T13:44:48.505Z,100860.53
2023-01-08T13:47:20.870Z,100861.44
2023-01-08T13:49:51.410Z,100877.44
2023-01-08T13:52:44.080Z,100851.25
2023-01-08T13:55:21.572Z,100863.38
2023-01-08T13:57:57.512Z,100872.56
2023-01-08T14:00:28.949Z,100873.41
2023-01-08T14:02:55.565Z,100879.50
2023-01-08T14:05:28.734Z,100875.13
2023-01-08T14:07:56.092Z,100877.66
2023-01-08T14:10:23.624Z,100886.84
2023-01-08T14:12:50.517Z,100889.28
2023-01-08T14:15:24.536Z,100897.66
2023-01-08T14:17:52.012Z,100890.06
2023-01-08T14:20:29.232Z,100892.53
2023-01-08T14:22:55.934Z,100890.00
2023-01-08T14:25:22.997Z,100902.59
2023-01-08T14:28:02.154Z,100878.13
2023-01-08T14:30:29.614Z,100878.94
2023-01-08T14:32:57.685Z,100872.97
2023-01-08T14:35:30.044Z,100858.63
2023-01-08T14:37:56.786Z,100853.69
2023-01-08T14:40:40.548Z,100851.94
2023-01-08T14:43:14.265Z,100864.63
2023-01-08T14:45:47.520Z,100863.78
2023-01-08T14:48:26.013Z,100870.47
2023-01-08T14:51:07.992Z,100874.69
2023-01-08T14:53:43.362Z,100871.31
2023-01-08T14:56:17.789Z,100867.97
2023-01-08T14:58:45.779Z,100869.59
2023-01-08T15:01:23.111Z,100877.88
2023-01-08T15:03:52.145Z,100874.41
2023-01-08T15:06:30.944Z,100867.75
2023-01-08T15:09:00.013Z,100871.88
2023-01-08T15:11:30.954Z,100876.97
2023-01-08T15:13:58.283Z,100871.09
2023-01-08T15:16:39.133Z,100878.81
2023-01-08T15:19:27.307Z,100865.34
2023-01-08T15:21:56.698Z,100866.16
2023-01-08T15:25:08.403Z,100870.44
2023-01-08T15:27:35.041Z,100865.31
2023-01-08T15:30:01.819Z,100872.03
2023-01-08T15:32:34.224Z,100864.41
2023-01-08T15:35:01.381Z,100851.72
2023-01-08T15:37:28.286Z,100863.56
2023-01-08T15:39:54.899Z,100861.81
2023-01-08T15:42:29.699Z,100862.59
2023-01-08T15:44:56.279Z,100866.72
2023-01-08T15:47:23.558Z,100876.88
2023-01-08T15:49:50.059Z,100874.34
2023-01-08T15:52:25.165Z,100872.63
2023-01-08T15:54:51.707Z,100863.38
2023-01-08T15:57:18.307Z,100868.50
2023-01-08T15:59:45.724Z,100864.25
2023-01-08T16:02:12.360Z,100861.72
2023-01-08T16:04:38.947Z,100852.41
2023-01-08T16:07:05.726Z,100854.06
2023-01-08T16:09:32.237Z,100851.50
2023-01-08T16:11:59.080Z,100849.91
2023-01-08T16:14:25.867Z,100846.50
2023-01-08T16:16:52.410Z,100847.31
2023-01-08T16:19:18.942Z,100855.66
2023-01-08T16:21:45.527Z,100847.16
2023-01-08T16:24:13.416Z,100853.03
2023-01-08T16:26:40.189Z,100847.97
2023-01-08T16:29:06.847Z,100842.88
2023-01-08T16:31:33.354Z,100837.78
2023-01-08T16:34:04.007Z,100824.34
2023-01-08T16:36:31.175Z,100822.75
2023-01-08T16:38:57.770Z,100824.47
2023-01-08T16:41:25.248Z,100822.81
2023-01-08T16:43:52.019Z,100821.13
2023-01-08T16:46:18.557Z,100823.63
2023-01-08T16:48:45.597Z,100828.75
2023-01-08T16:51:15.171Z,100827.94
2023-01-08T16:53:41.856Z,100820.38
2023-01-08T16:56:09.420Z,100832.97
2023-01-08T16:58:37.000Z,100823.66
2023-01-08T17:01:09.339Z,100832.06
2023-01-08T17:03:35.998Z,100838.78
2023-01-08T17:06:07.819Z,100836.31
2023-01-08T17:08:34.422Z,100832.19
2023-01-08T17:11:00.947Z,100823.94
2023-01-08T17:13:27.808Z,100820.81
2023-01-08T17:15:54.463Z,100840.47
2023-01-08T17:18:21.089Z,100841.50
2023-01-08T17:20:54.744Z,100839.13
2023-01-08T17:23:21.260Z,100840.88
2023-01-08T17:25:47.737Z,100846.97
2023-01-08T17:28:14.228Z,100846.31
2023-01-08T17:30:40.759Z,100850.69
2023-01-08T17:33:08.114Z,100852.56
2023-01-08T17:35:34.676Z,100853.53
2023-01-08T17:38:01.298Z,100858.72
2023-01-08T17:40:28.109Z,100858.03
2023-01-08T17:42:55.656Z,100856.41
2023-01-08T17:45:22.310Z,100850.53
2023-01-08T17:47:48.876Z,100851.34
2023-01-08T17:50:15.596Z,100860.53
2023-01-08T17:52:42.053Z,100862.22
2023-01-08T17:55:08.855Z,100885.84
2023-01-08T17:57:35.562Z,100861.47
2023-01-08T18:00:02.080Z,100856.47
2023-01-08T18:02:28.782Z,100872.53
2023-01-08T18:04:55.412Z,100876.78
2023-01-08T18:07:21.933Z,100865.03
2023-01-08T18:09:48.487Z,100870.91
2023-01-08T18:12:15.128Z,100854.88
2023-01-08T18:14:41.677Z,100856.47
2023-01-08T18:17:08.205Z,100850.47
2023-01-08T18:19:34.831Z,100853.69
2023-01-08T18:22:01.454Z,100848.56
2023-01-08T18:24:28.271Z,100853.66
2023-01-08T18:26:54.909Z,100852.88
2023-01-08T18:29:21.450Z,100863.97
2023-01-08T18:31:48.031Z,100854.78
2023-01-08T18:34:14.593Z,100848.94
2023-01-08T18:36:41.058Z,100855.72
2023-01-08T18:39:07.655Z,100860.84
2023-01-08T18:41:34.279Z,100863.44
2023-01-08T18:44:02.186Z,100858.47
2023-01-08T18:46:29.367Z,100863.59
2023-01-08T18:48:56.104Z,100859.44
2023-01-08T18:51:23.272Z,100869.56
2023-01-08T18:53:50.431Z,100864.56
2023-01-08T18:56:32.976Z,100871.34
2023-01-08T18:58:59.907Z,100878.09
2023-01-08T19:01:26.640Z,100880.72
2023-01-08T19:03:53.904Z,100882.41
2023-01-08T19:06:20.435Z,100873.22
2023-01-08T19:08:48.028Z,100875.75
2023-01-08T19:11:15.415Z,100877.44
2023-01-08T19:13:42.220Z,100879.13
2023-01-08T19:16:11.701Z,100880.00
2023-01-08T19:18:38.866Z,100881.69
2023-01-08T19:21:11.422Z,100876.63
2023-01-08T19:23:37.907Z,100878.38
2023-01-08T19:26:08.165Z,100885.94
2023-01-08T19:28:34.877Z,100883.41
2023-01-08T19:31:02.080Z,100885.94
2023-01-08T19:33:29.364Z,100889.28
2023-01-08T19:36:00.398Z,100887.59
2023-01-08T19:38:26.967Z,100890.13
2023-01-08T19:40:58.206Z,100890.13
2023-01-08T19:43:24.698Z,100882.56
2023-01-08T19:45:51.405Z,100883.41
2023-01-08T19:48:17.946Z,100882.53
2023-01-08T19:50:44.553Z,100878.28
2023-01-08T19:53:12.295Z,100877.41
2023-01-08T19:55:40.508Z,100881.56
2023-01-08T19:58:07.053Z,100874.81
2023-01-08T20:00:33.705Z,100884.91
2023-01-08T20:03:00.245Z,100884.91
2023-01-08T20:05:26.785Z,100887.47
2023-01-08T20:07:53.290Z,100891.69
2023-01-08T20:10:20.174Z,100889.22
2023-01-08T20:12:46.735Z,100896.81
2023-01-08T20:15:13.308Z,100885.09
2023-01-08T20:17:42.780Z,100881.75
2023-01-08T20:20:11.050Z,100874.19
2023-01-08T20:22:39.978Z,100884.28
2023-01-08T20:25:07.158Z,100891.81
2023-01-08T20:27:33.780Z,100882.59
2023-01-08T20:30:00.378Z,100892.72
2023-01-08T20:32:27.153Z,100900.19
2023-01-08T20:34:53.764Z,100902.66
2023-01-08T20:37:20.303Z,100902.69
2023-01-08T20:39:46.868Z,100904.34
2023-01-08T20:42:17.613Z,100904.31
2023-01-08T20:44:48.742Z,100905.16
2023-01-08T20:47:15.447Z,100908.50
2023-01-08T20:49:41.940Z,100907.69
2023-01-08T20:52:08.540Z,100906.00
2023-01-08T20:54:35.136Z,100906.91
2023-01-08T20:57:01.652Z,100910.22
2023-01-08T20:59:28.948Z,100921.94
2023-01-08T21:01:55.457Z,100923.63
2023-01-08T21:04:22.274Z,100922.78
2023-01-08T21:06:49.097Z,100920.28
2023-01-08T21:09:15.639Z,100933.69
2023-01-08T21:11:42.426Z,100944.59
2023-01-08T21:14:10.592Z,100938.72
2023-01-08T21:16:37.839Z,100940.44
2023-01-08T21:19:04.427Z,100941.34
2023-01-08T21:21:34.162Z,100939.69
2023-01-08T21:24:02.990Z,100940.50
2023-01-08T21:26:30.370Z,100947.25
2023-01-08T21:28:56.869Z,100943.06
2023-01-08T21:31:25.195Z,100947.22
2023-01-08T21:33:52.060Z,100938.78
2023-01-08T21:36:21.818Z,100949.66
2023-01-08T21:38:49.430Z,100950.41
2023-01-08T21:41:26.281Z,100959.56
2023-01-08T21:43:52.835Z,100955.44
2023-01-08T21:46:20.177Z,100953.81
2023-01-08T21:48:46.755Z,100954.66
2023-01-08T21:51:13.246Z,100945.47
2023-01-08T21:53:39.725Z,100943.84
2023-01-08T21:56:06.518Z,100932.13
2023-01-08T21:58:33.007Z,100932.16
2023-01-08T22:00:59.605Z,100934.66
2023-01-08T22:03:26.203Z,100924.56
2023-01-08T22:06:04.130Z,100936.31
2023-01-08T22:08:31.181Z,100937.16
2023-01-08T22:10:59.150Z,100937.16
2023-01-08T22:13:26.869Z,100941.34
2023-01-08T22:16:08.771Z,100937.97
2023-01-08T22:18:36.515Z,100935.47
2023-01-08T22:21:08.014Z,100945.53
2023-01-08T22:23:34.682Z,100947.22
2023-01-08T22:26:05.972Z,100944.69
2023-01-08T22:28:32.532Z,100927.06
2023-01-08T22:30:59.762Z,100928.75
2023-01-08T22:33:26.281Z,100930.44
2023-01-08T22:35:52.795Z,100932.09
2023-01-08T22:38:19.653Z,100939.66
2023-01-08T22:40:46.297Z,100944.69
2023-01-08T22:43:12.998Z,100937.09
2023-01-08T22:45:39.677Z,100940.47
2023-01-08T22:48:06.234Z,100940.44
2023-01-08T22:50:32.778Z,100940.44
2023-01-08T22:52:59.337Z,100930.38
2023-01-08T22:55:25.837Z,100938.75
2023-01-08T22:57:52.388Z,100947.16
2023-01-08T23:00:19.226Z,100941.31
2023-01-08T23:02:45.907Z,100942.13
2023-01-08T23:05:12.560Z,100937.16
2023-01-08T23:07:39.222Z,100935.47
2023-01-08T23:10:06.313Z,100931.28
2023-01-08T23:12:32.821Z,100933.78
2023-01-08T23:14:59.341Z,100927.06
2023-01-08T23:17:25.822Z,100935.47
2023-01-08T23:19:52.338Z,100937.16
2023-01-08T23:22:18.877Z,100939.63
2023-01-08T23:24:45.447Z,100943.81
2023-01-08T23:27:11.957Z,100953.94
2023-01-08T23:29:38.558Z,100953.94
2023-01-08T23:32:05.268Z,100949.75
2023-01-08T23:34:31.890Z,100949.72
2023-01-08T23:36:58.517Z,100944.69
2023-01-08T23:39:25.118Z,100944.69
2023-01-08T23:41:52.327Z,100949.75
2023-01-08T23:44:19.016Z,100953.91
2023-01-08T23:46:45.503Z,100946.38
2023-01-08T23:49:12.016Z,100943.88
2023-01-08T23:51:38.763Z,100948.06
2023-01-08T23:54:05.364Z,100950.56
2023-01-08T23:56:31.984Z,100938.00
2023-01-08T23:58:58.537Z,100941.31
